sensor_id;sensor_type;location;lat;lon;timestamp;P1;durP1;ratioP1;P2;durP2;ratioP2
72590;SDS011;60625;51.212;5.952;2023-07-31T00:04:55;8.80;;;2.60;;
72590;SDS011;60625;51.212;5.952;2023-07-31T00:09:56;11.10;;;2.40;;
72590;SDS011;60625;51.212;5.952;2023-07-31T00:14:56;9.70;;;2.90;;
72590;SDS011;60625;51.212;5.952;2023-07-31T00:19:57;11.60;;;2.50;;
72590;SDS011;60625;51.212;5.952;2023-07-31T00:24:57;7.60;;;2.70;;
72590;SDS011;60625;51.212;5.952;2023-07-31T00:29:58;11.10;;;2.90;;
72590;SDS011;60625;51.212;5.952;2023-07-31T00:35:00;10.90;;;3.00;;
72590;SDS011;60625;51.212;5.952;2023-07-31T00:40:00;8.60;;;2.70;;
72590;SDS011;60625;51.212;5.952;2023-07-31T00:45:01;14.20;;;3.40;;
72590;SDS011;60625;51.212;5.952;2023-07-31T00:50:01;10.00;;;2.70;;
72590;SDS011;60625;51.212;5.952;2023-07-31T00:55:03;11.00;;;3.10;;
72590;SDS011;60625;51.212;5.952;2023-07-31T01:00:05;10.90;;;2.80;;
72590;SDS011;60625;51.212;5.952;2023-07-31T01:05:06;11.40;;;2.40;;
72590;SDS011;60625;51.212;5.952;2023-07-31T01:10:18;12.00;;;2.50;;
72590;SDS011;60625;51.212;5.952;2023-07-31T01:15:21;16.10;;;2.70;;
72590;SDS011;60625;51.212;5.952;2023-07-31T01:20:24;14.20;;;3.10;;
72590;SDS011;60625;51.212;5.952;2023-07-31T01:25:56;8.80;;;3.00;;
72590;SDS011;60625;51.212;5.952;2023-07-31T01:31:07;13.60;;;3.20;;
72590;SDS011;60625;51.212;5.952;2023-07-31T01:36:08;11.10;;;2.80;;
72590;SDS011;60625;51.212;5.952;2023-07-31T01:41:09;16.10;;;3.20;;
72590;SDS011;60625;51.212;5.952;2023-07-31T01:46:10;11.50;;;2.60;;
72590;SDS011;60625;51.212;5.952;2023-07-31T01:51:10;9.40;;;2.70;;
72590;SDS011;60625;51.212;5.952;2023-07-31T01:56:11;14.70;;;3.00;;
72590;SDS011;60625;51.212;5.952;2023-07-31T02:01:11;11.00;;;2.60;;
72590;SDS011;60625;51.212;5.952;2023-07-31T02:06:13;9.20;;;2.60;;
72590;SDS011;60625;51.212;5.952;2023-07-31T02:11:13;11.40;;;3.20;;
72590;SDS011;60625;51.212;5.952;2023-07-31T02:16:13;13.80;;;3.10;;
72590;SDS011;60625;51.212;5.952;2023-07-31T02:21:15;13.20;;;3.40;;
72590;SDS011;60625;51.212;5.952;2023-07-31T02:26:15;11.50;;;3.50;;
72590;SDS011;60625;51.212;5.952;2023-07-31T02:31:16;12.10;;;3.20;;
72590;SDS011;60625;51.212;5.952;2023-07-31T02:36:17;12.40;;;3.60;;
72590;SDS011;60625;51.212;5.952;2023-07-31T02:41:17;7.70;;;2.50;;
72590;SDS011;60625;51.212;5.952;2023-07-31T02:46:19;12.70;;;3.30;;
72590;SDS011;60625;51.212;5.952;2023-07-31T02:51:20;10.40;;;2.60;;
72590;SDS011;60625;51.212;5.952;2023-07-31T02:56:21;9.90;;;3.00;;
72590;SDS011;60625;51.212;5.952;2023-07-31T03:01:22;10.50;;;3.60;;
72590;SDS011;60625;51.212;5.952;2023-07-31T03:06:22;9.40;;;3.00;;
72590;SDS011;60625;51.212;5.952;2023-07-31T03:11:23;12.10;;;3.50;;
72590;SDS011;60625;51.212;5.952;2023-07-31T03:16:23;10.90;;;3.20;;
72590;SDS011;60625;51.212;5.952;2023-07-31T03:21:24;10.80;;;4.00;;
72590;SDS011;60625;51.212;5.952;2023-07-31T03:26:24;9.40;;;3.10;;
72590;SDS011;60625;51.212;5.952;2023-07-31T03:31:25;12.40;;;3.20;;
72590;SDS011;60625;51.212;5.952;2023-07-31T03:36:26;10.30;;;3.10;;
72590;SDS011;60625;51.212;5.952;2023-07-31T03:41:27;9.20;;;3.10;;
72590;SDS011;60625;51.212;5.952;2023-07-31T03:46:28;9.50;;;3.30;;
72590;SDS011;60625;51.212;5.952;2023-07-31T03:51:28;10.20;;;3.10;;
72590;SDS011;60625;51.212;5.952;2023-07-31T03:56:29;12.80;;;3.70;;
72590;SDS011;60625;51.212;5.952;2023-07-31T04:01:30;11.10;;;3.10;;
72590;SDS011;60625;51.212;5.952;2023-07-31T04:06:30;11.20;;;3.10;;
72590;SDS011;60625;51.212;5.952;2023-07-31T04:11:31;12.10;;;3.80;;
72590;SDS011;60625;51.212;5.952;2023-07-31T04:16:31;9.40;;;3.70;;
72590;SDS011;60625;51.212;5.952;2023-07-31T04:21:32;7.40;;;3.00;;
72590;SDS011;60625;51.212;5.952;2023-07-31T04:26:32;8.10;;;3.60;;
72590;SDS011;60625;51.212;5.952;2023-07-31T04:31:33;12.90;;;3.70;;
72590;SDS011;60625;51.212;5.952;2023-07-31T04:36:35;8.20;;;3.70;;
72590;SDS011;60625;51.212;5.952;2023-07-31T04:41:35;11.80;;;3.70;;
72590;SDS011;60625;51.212;5.952;2023-07-31T04:46:36;13.70;;;4.60;;
72590;SDS011;60625;51.212;5.952;2023-07-31T04:51:37;11.00;;;3.60;;
72590;SDS011;60625;51.212;5.952;2023-07-31T04:56:38;7.20;;;3.10;;
72590;SDS011;60625;51.212;5.952;2023-07-31T05:01:38;10.40;;;3.80;;
72590;SDS011;60625;51.212;5.952;2023-07-31T05:06:40;10.00;;;3.30;;
72590;SDS011;60625;51.212;5.952;2023-07-31T05:11:40;8.50;;;3.60;;
72590;SDS011;60625;51.212;5.952;2023-07-31T05:16:43;10.40;;;3.50;;
72590;SDS011;60625;51.212;5.952;2023-07-31T05:21:43;11.50;;;3.50;;
72590;SDS011;60625;51.212;5.952;2023-07-31T05:26:44;9.50;;;3.50;;
72590;SDS011;60625;51.212;5.952;2023-07-31T05:31:44;9.20;;;3.50;;
72590;SDS011;60625;51.212;5.952;2023-07-31T05:36:45;8.20;;;3.40;;
72590;SDS011;60625;51.212;5.952;2023-07-31T05:41:45;7.30;;;3.10;;
72590;SDS011;60625;51.212;5.952;2023-07-31T05:46:46;10.20;;;4.30;;
72590;SDS011;60625;51.212;5.952;2023-07-31T05:51:46;8.50;;;3.60;;
72590;SDS011;60625;51.212;5.952;2023-07-31T05:56:46;9.20;;;3.70;;
72590;SDS011;60625;51.212;5.952;2023-07-31T06:01:47;14.00;;;3.60;;
72590;SDS011;60625;51.212;5.952;2023-07-31T06:06:47;9.00;;;3.30;;
72590;SDS011;60625;51.212;5.952;2023-07-31T06:11:48;10.40;;;3.10;;
72590;SDS011;60625;51.212;5.952;2023-07-31T06:16:48;9.40;;;3.30;;
72590;SDS011;60625;51.212;5.952;2023-07-31T06:21:49;8.80;;;3.30;;
72590;SDS011;60625;51.212;5.952;2023-07-31T06:26:49;9.20;;;3.30;;
72590;SDS011;60625;51.212;5.952;2023-07-31T06:31:51;8.00;;;3.10;;
72590;SDS011;60625;51.212;5.952;2023-07-31T06:36:51;7.80;;;3.20;;
72590;SDS011;60625;51.212;5.952;2023-07-31T06:41:52;9.10;;;3.50;;
72590;SDS011;60625;51.212;5.952;2023-07-31T06:46:52;9.10;;;3.20;;
72590;SDS011;60625;51.212;5.952;2023-07-31T06:51:53;7.90;;;3.40;;
72590;SDS011;60625;51.212;5.952;2023-07-31T06:56:53;11.70;;;3.30;;
72590;SDS011;60625;51.212;5.952;2023-07-31T07:01:54;7.70;;;2.80;;
72590;SDS011;60625;51.212;5.952;2023-07-31T07:06:54;6.10;;;2.90;;
72590;SDS011;60625;51.212;5.952;2023-07-31T07:11:55;7.60;;;2.70;;
72590;SDS011;60625;51.212;5.952;2023-07-31T07:16:55;6.50;;;2.10;;
72590;SDS011;60625;51.212;5.952;2023-07-31T07:21:56;5.40;;;2.20;;
72590;SDS011;60625;51.212;5.952;2023-07-31T07:26:57;5.70;;;2.00;;
72590;SDS011;60625;51.212;5.952;2023-07-31T07:32:01;6.20;;;2.40;;
72590;SDS011;60625;51.212;5.952;2023-07-31T07:37:01;8.40;;;3.10;;
72590;SDS011;60625;51.212;5.952;2023-07-31T07:42:02;6.40;;;2.40;;
72590;SDS011;60625;51.212;5.952;2023-07-31T07:47:04;8.10;;;3.10;;
72590;SDS011;60625;51.212;5.952;2023-07-31T07:52:06;7.00;;;2.50;;
72590;SDS011;60625;51.212;5.952;2023-07-31T07:57:07;7.20;;;2.40;;
72590;SDS011;60625;51.212;5.952;2023-07-31T08:02:07;6.40;;;2.50;;
72590;SDS011;60625;51.212;5.952;2023-07-31T08:07:10;7.70;;;2.70;;
72590;SDS011;60625;51.212;5.952;2023-07-31T08:12:12;8.50;;;2.80;;
72590;SDS011;60625;51.212;5.952;2023-07-31T08:17:13;6.30;;;2.80;;
72590;SDS011;60625;51.212;5.952;2023-07-31T08:22:13;9.70;;;3.60;;
72590;SDS011;60625;51.212;5.952;2023-07-31T08:27:14;5.90;;;2.60;;
72590;SDS011;60625;51.212;5.952;2023-07-31T08:32:15;6.90;;;2.90;;
72590;SDS011;60625;51.212;5.952;2023-07-31T08:37:15;9.90;;;3.30;;
72590;SDS011;60625;51.212;5.952;2023-07-31T08:42:16;5.60;;;2.60;;
72590;SDS011;60625;51.212;5.952;2023-07-31T08:47:17;7.40;;;2.70;;
72590;SDS011;60625;51.212;5.952;2023-07-31T08:52:17;8.10;;;3.30;;
72590;SDS011;60625;51.212;5.952;2023-07-31T08:57:18;7.90;;;2.70;;
72590;SDS011;60625;51.212;5.952;2023-07-31T09:02:18;7.60;;;2.80;;
72590;SDS011;60625;51.212;5.952;2023-07-31T09:07:21;9.60;;;2.90;;
72590;SDS011;60625;51.212;5.952;2023-07-31T09:12:21;7.10;;;3.30;;
72590;SDS011;60625;51.212;5.952;2023-07-31T09:17:48;7.30;;;2.90;;
72590;SDS011;60625;51.212;5.952;2023-07-31T09:23:10;6.00;;;2.70;;
72590;SDS011;60625;51.212;5.952;2023-07-31T09:28:12;9.00;;;3.40;;
72590;SDS011;60625;51.212;5.952;2023-07-31T09:33:13;11.10;;;3.40;;
72590;SDS011;60625;51.212;5.952;2023-07-31T09:38:15;8.40;;;3.40;;
72590;SDS011;60625;51.212;5.952;2023-07-31T09:43:21;8.00;;;2.60;;
72590;SDS011;60625;51.212;5.952;2023-07-31T09:48:23;5.80;;;2.60;;
72590;SDS011;60625;51.212;5.952;2023-07-31T09:53:30;8.70;;;2.70;;
72590;SDS011;60625;51.212;5.952;2023-07-31T09:58:34;10.40;;;2.80;;
72590;SDS011;60625;51.212;5.952;2023-07-31T10:03:36;5.90;;;2.10;;
72590;SDS011;60625;51.212;5.952;2023-07-31T10:08:38;6.00;;;2.50;;
72590;SDS011;60625;51.212;5.952;2023-07-31T10:13:41;7.50;;;2.20;;
72590;SDS011;60625;51.212;5.952;2023-07-31T10:18:43;6.90;;;2.30;;
72590;SDS011;60625;51.212;5.952;2023-07-31T10:23:44;5.80;;;1.80;;
72590;SDS011;60625;51.212;5.952;2023-07-31T10:28:47;4.80;;;1.70;;
72590;SDS011;60625;51.212;5.952;2023-07-31T10:33:49;4.90;;;2.00;;
72590;SDS011;60625;51.212;5.952;2023-07-31T10:38:50;6.40;;;2.00;;
72590;SDS011;60625;51.212;5.952;2023-07-31T10:44:03;6.60;;;2.00;;
72590;SDS011;60625;51.212;5.952;2023-07-31T10:49:06;6.80;;;2.20;;
72590;SDS011;60625;51.212;5.952;2023-07-31T10:54:16;4.70;;;2.10;;
72590;SDS011;60625;51.212;5.952;2023-07-31T10:59:18;5.00;;;1.50;;
72590;SDS011;60625;51.212;5.952;2023-07-31T11:04:26;4.20;;;1.50;;
72590;SDS011;60625;51.212;5.952;2023-07-31T11:09:32;4.60;;;2.00;;
72590;SDS011;60625;51.212;5.952;2023-07-31T11:14:33;5.90;;;1.90;;
72590;SDS011;60625;51.212;5.952;2023-07-31T11:19:33;5.10;;;2.30;;
72590;SDS011;60625;51.212;5.952;2023-07-31T11:24:34;5.70;;;2.10;;
72590;SDS011;60625;51.212;5.952;2023-07-31T11:29:35;5.40;;;1.80;;
72590;SDS011;60625;51.212;5.952;2023-07-31T11:34:51;4.90;;;2.10;;
72590;SDS011;60625;51.212;5.952;2023-07-31T11:40:02;6.20;;;2.20;;
72590;SDS011;60625;51.212;5.952;2023-07-31T11:45:04;5.00;;;2.20;;
72590;SDS011;60625;51.212;5.952;2023-07-31T11:50:10;5.80;;;2.60;;
72590;SDS011;60625;51.212;5.952;2023-07-31T11:55:12;5.00;;;1.70;;
72590;SDS011;60625;51.212;5.952;2023-07-31T12:00:15;5.30;;;2.40;;
72590;SDS011;60625;51.212;5.952;2023-07-31T12:05:17;6.60;;;3.10;;
72590;SDS011;60625;51.212;5.952;2023-07-31T12:15:37;6.20;;;2.80;;
72590;SDS011;60625;51.212;5.952;2023-07-31T12:20:47;8.60;;;3.20;;
72590;SDS011;60625;51.212;5.952;2023-07-31T12:26:03;7.40;;;3.00;;
72590;SDS011;60625;51.212;5.952;2023-07-31T12:31:05;7.70;;;2.90;;
72590;SDS011;60625;51.212;5.952;2023-07-31T12:36:17;7.00;;;3.30;;
72590;SDS011;60625;51.212;5.952;2023-07-31T12:41:19;11.90;;;3.20;;
72590;SDS011;60625;51.212;5.952;2023-07-31T12:46:20;8.70;;;3.40;;
72590;SDS011;60625;51.212;5.952;2023-07-31T12:51:20;7.30;;;3.60;;
72590;SDS011;60625;51.212;5.952;2023-07-31T12:56:21;8.40;;;3.30;;
72590;SDS011;60625;51.212;5.952;2023-07-31T13:01:22;8.80;;;3.30;;
72590;SDS011;60625;51.212;5.952;2023-07-31T13:06:23;11.10;;;3.80;;
72590;SDS011;60625;51.212;5.952;2023-07-31T13:11:23;10.50;;;3.80;;
72590;SDS011;60625;51.212;5.952;2023-07-31T13:16:24;11.30;;;3.30;;
72590;SDS011;60625;51.212;5.952;2023-07-31T13:21:24;8.10;;;3.50;;
72590;SDS011;60625;51.212;5.952;2023-07-31T13:26:25;7.00;;;3.30;;
72590;SDS011;60625;51.212;5.952;2023-07-31T13:31:26;7.60;;;2.80;;
72590;SDS011;60625;51.212;5.952;2023-07-31T13:36:26;6.80;;;3.10;;
72590;SDS011;60625;51.212;5.952;2023-07-31T13:41:27;9.50;;;3.30;;
72590;SDS011;60625;51.212;5.952;2023-07-31T13:46:27;7.40;;;3.10;;
72590;SDS011;60625;51.212;5.952;2023-07-31T13:51:28;7.30;;;3.10;;
72590;SDS011;60625;51.212;5.952;2023-07-31T13:56:28;7.70;;;3.60;;
72590;SDS011;60625;51.212;5.952;2023-07-31T14:01:29;9.30;;;3.50;;
72590;SDS011;60625;51.212;5.952;2023-07-31T14:06:30;8.90;;;3.30;;
72590;SDS011;60625;51.212;5.952;2023-07-31T14:11:31;7.70;;;3.00;;
72590;SDS011;60625;51.212;5.952;2023-07-31T14:16:35;10.60;;;3.70;;
72590;SDS011;60625;51.212;5.952;2023-07-31T14:21:36;9.00;;;3.20;;
72590;SDS011;60625;51.212;5.952;2023-07-31T14:26:36;8.00;;;3.30;;
72590;SDS011;60625;51.212;5.952;2023-07-31T14:31:36;10.60;;;3.90;;
72590;SDS011;60625;51.212;5.952;2023-07-31T14:36:37;12.40;;;3.30;;
72590;SDS011;60625;51.212;5.952;2023-07-31T14:41:38;9.10;;;3.40;;
72590;SDS011;60625;51.212;5.952;2023-07-31T14:46:38;7.00;;;3.10;;
72590;SDS011;60625;51.212;5.952;2023-07-31T14:51:38;7.90;;;3.10;;
72590;SDS011;60625;51.212;5.952;2023-07-31T14:56:39;9.60;;;3.40;;
72590;SDS011;60625;51.212;5.952;2023-07-31T15:01:39;8.00;;;3.40;;
72590;SDS011;60625;51.212;5.952;2023-07-31T15:06:40;8.50;;;3.30;;
72590;SDS011;60625;51.212;5.952;2023-07-31T15:11:41;8.70;;;3.50;;
72590;SDS011;60625;51.212;5.952;2023-07-31T15:16:41;6.50;;;2.90;;
72590;SDS011;60625;51.212;5.952;2023-07-31T15:21:42;8.00;;;3.10;;
72590;SDS011;60625;51.212;5.952;2023-07-31T15:26:42;8.90;;;3.40;;
72590;SDS011;60625;51.212;5.952;2023-07-31T15:31:43;7.70;;;3.30;;
72590;SDS011;60625;51.212;5.952;2023-07-31T15:36:43;6.70;;;3.40;;
72590;SDS011;60625;51.212;5.952;2023-07-31T15:41:44;7.80;;;2.60;;
72590;SDS011;60625;51.212;5.952;2023-07-31T15:46:45;9.10;;;2.80;;
72590;SDS011;60625;51.212;5.952;2023-07-31T15:51:45;9.40;;;2.90;;
72590;SDS011;60625;51.212;5.952;2023-07-31T15:56:45;6.50;;;2.80;;
72590;SDS011;60625;51.212;5.952;2023-07-31T16:01:46;6.60;;;2.80;;
72590;SDS011;60625;51.212;5.952;2023-07-31T16:06:46;8.80;;;2.40;;
72590;SDS011;60625;51.212;5.952;2023-07-31T16:11:47;5.90;;;2.20;;
72590;SDS011;60625;51.212;5.952;2023-07-31T16:16:48;6.20;;;2.20;;
72590;SDS011;60625;51.212;5.952;2023-07-31T16:21:48;4.80;;;1.80;;
72590;SDS011;60625;51.212;5.952;2023-07-31T16:26:48;6.70;;;2.00;;
72590;SDS011;60625;51.212;5.952;2023-07-31T16:31:49;5.80;;;1.80;;
72590;SDS011;60625;51.212;5.952;2023-07-31T16:36:49;5.90;;;2.30;;
72590;SDS011;60625;51.212;5.952;2023-07-31T16:41:51;7.10;;;1.70;;
72590;SDS011;60625;51.212;5.952;2023-07-31T16:46:51;4.70;;;2.00;;
72590;SDS011;60625;51.212;5.952;2023-07-31T16:51:52;5.90;;;2.00;;
72590;SDS011;60625;51.212;5.952;2023-07-31T16:56:52;7.40;;;2.20;;
72590;SDS011;60625;51.212;5.952;2023-07-31T17:01:53;4.90;;;1.90;;
72590;SDS011;60625;51.212;5.952;2023-07-31T17:06:53;5.90;;;1.80;;
72590;SDS011;60625;51.212;5.952;2023-07-31T17:11:54;6.40;;;1.80;;
72590;SDS011;60625;51.212;5.952;2023-07-31T17:16:55;7.30;;;2.30;;
72590;SDS011;60625;51.212;5.952;2023-07-31T17:21:56;5.50;;;2.10;;
72590;SDS011;60625;51.212;5.952;2023-07-31T17:26:56;5.10;;;1.80;;
72590;SDS011;60625;51.212;5.952;2023-07-31T17:31:57;8.10;;;2.30;;
72590;SDS011;60625;51.212;5.952;2023-07-31T17:36:57;5.80;;;2.20;;
72590;SDS011;60625;51.212;5.952;2023-07-31T17:41:59;7.10;;;2.10;;
72590;SDS011;60625;51.212;5.952;2023-07-31T17:46:59;5.10;;;1.90;;
72590;SDS011;60625;51.212;5.952;2023-07-31T17:52:02;4.50;;;1.70;;
72590;SDS011;60625;51.212;5.952;2023-07-31T17:57:03;5.50;;;1.80;;
72590;SDS011;60625;51.212;5.952;2023-07-31T18:02:04;4.20;;;1.70;;
72590;SDS011;60625;51.212;5.952;2023-07-31T18:07:04;5.80;;;1.60;;
72590;SDS011;60625;51.212;5.952;2023-07-31T18:12:06;4.90;;;1.80;;
72590;SDS011;60625;51.212;5.952;2023-07-31T18:17:07;3.30;;;1.20;;
72590;SDS011;60625;51.212;5.952;2023-07-31T18:22:08;3.80;;;1.10;;
72590;SDS011;60625;51.212;5.952;2023-07-31T18:27:08;5.20;;;1.50;;
72590;SDS011;60625;51.212;5.952;2023-07-31T18:32:09;5.50;;;1.50;;
72590;SDS011;60625;51.212;5.952;2023-07-31T18:37:09;3.90;;;1.40;;
72590;SDS011;60625;51.212;5.952;2023-07-31T18:42:10;3.50;;;1.10;;
72590;SDS011;60625;51.212;5.952;2023-07-31T18:47:11;4.00;;;0.90;;
72590;SDS011;60625;51.212;5.952;2023-07-31T18:52:11;3.80;;;1.00;;
72590;SDS011;60625;51.212;5.952;2023-07-31T18:57:11;3.80;;;1.00;;
72590;SDS011;60625;51.212;5.952;2023-07-31T19:02:12;4.40;;;1.40;;
72590;SDS011;60625;51.212;5.952;2023-07-31T19:07:12;3.40;;;1.00;;
72590;SDS011;60625;51.212;5.952;2023-07-31T19:12:13;4.00;;;1.00;;
72590;SDS011;60625;51.212;5.952;2023-07-31T19:17:14;4.70;;;1.00;;
72590;SDS011;60625;51.212;5.952;2023-07-31T19:22:15;3.60;;;1.10;;
72590;SDS011;60625;51.212;5.952;2023-07-31T19:27:15;4.30;;;1.20;;
72590;SDS011;60625;51.212;5.952;2023-07-31T19:32:16;4.40;;;1.10;;
72590;SDS011;60625;51.212;5.952;2023-07-31T19:37:16;4.50;;;1.00;;
72590;SDS011;60625;51.212;5.952;2023-07-31T19:42:17;2.90;;;0.90;;
72590;SDS011;60625;51.212;5.952;2023-07-31T19:47:18;3.10;;;1.10;;
72590;SDS011;60625;51.212;5.952;2023-07-31T19:52:18;4.10;;;1.30;;
72590;SDS011;60625;51.212;5.952;2023-07-31T19:57:18;3.40;;;1.10;;
72590;SDS011;60625;51.212;5.952;2023-07-31T20:02:19;4.60;;;1.10;;
72590;SDS011;60625;51.212;5.952;2023-07-31T20:07:19;2.90;;;0.80;;
72590;SDS011;60625;51.212;5.952;2023-07-31T20:12:20;4.60;;;1.40;;
72590;SDS011;60625;51.212;5.952;2023-07-31T20:17:22;4.30;;;1.00;;
72590;SDS011;60625;51.212;5.952;2023-07-31T20:22:23;3.10;;;1.00;;
72590;SDS011;60625;51.212;5.952;2023-07-31T20:27:23;2.70;;;1.00;;
72590;SDS011;60625;51.212;5.952;2023-07-31T20:32:24;2.70;;;0.90;;
72590;SDS011;60625;51.212;5.952;2023-07-31T20:37:25;5.70;;;1.10;;
72590;SDS011;60625;51.212;5.952;2023-07-31T20:42:27;6.50;;;1.10;;
72590;SDS011;60625;51.212;5.952;2023-07-31T20:47:27;5.30;;;1.00;;
72590;SDS011;60625;51.212;5.952;2023-07-31T20:52:27;3.80;;;1.10;;
72590;SDS011;60625;51.212;5.952;2023-07-31T20:57:28;5.60;;;1.00;;
72590;SDS011;60625;51.212;5.952;2023-07-31T21:02:28;5.20;;;1.10;;
72590;SDS011;60625;51.212;5.952;2023-07-31T21:07:29;2.60;;;1.00;;
72590;SDS011;60625;51.212;5.952;2023-07-31T21:12:29;2.90;;;0.80;;
72590;SDS011;60625;51.212;5.952;2023-07-31T21:17:30;3.30;;;1.10;;
72590;SDS011;60625;51.212;5.952;2023-07-31T21:22:31;2.70;;;0.80;;
72590;SDS011;60625;51.212;5.952;2023-07-31T21:27:31;4.30;;;1.20;;
72590;SDS011;60625;51.212;5.952;2023-07-31T21:32:32;4.30;;;0.80;;
72590;SDS011;60625;51.212;5.952;2023-07-31T21:37:32;3.30;;;1.00;;
72590;SDS011;60625;51.212;5.952;2023-07-31T21:42:36;5.30;;;1.10;;
72590;SDS011;60625;51.212;5.952;2023-07-31T21:47:36;2.50;;;0.90;;
72590;SDS011;60625;51.212;5.952;2023-07-31T21:52:37;2.70;;;1.00;;
72590;SDS011;60625;51.212;5.952;2023-07-31T21:57:38;4.10;;;0.70;;
72590;SDS011;60625;51.212;5.952;2023-07-31T22:02:39;2.50;;;0.90;;
72590;SDS011;60625;51.212;5.952;2023-07-31T22:07:39;2.90;;;0.90;;
72590;SDS011;60625;51.212;5.952;2023-07-31T22:12:40;3.20;;;0.80;;
72590;SDS011;60625;51.212;5.952;2023-07-31T22:17:40;4.10;;;1.00;;
72590;SDS011;60625;51.212;5.952;2023-07-31T22:22:41;2.00;;;0.60;;
72590;SDS011;60625;51.212;5.952;2023-07-31T22:27:41;2.90;;;0.70;;
72590;SDS011;60625;51.212;5.952;2023-07-31T22:32:42;2.10;;;0.50;;
72590;SDS011;60625;51.212;5.952;2023-07-31T22:37:42;3.20;;;0.90;;
72590;SDS011;60625;51.212;5.952;2023-07-31T22:42:43;2.20;;;0.70;;
72590;SDS011;60625;51.212;5.952;2023-07-31T22:47:45;3.00;;;0.70;;
72590;SDS011;60625;51.212;5.952;2023-07-31T22:52:45;2.10;;;0.60;;
72590;SDS011;60625;51.212;5.952;2023-07-31T22:57:46;1.80;;;0.50;;
72590;SDS011;60625;51.212;5.952;2023-07-31T23:02:46;2.30;;;0.50;;
72590;SDS011;60625;51.212;5.952;2023-07-31T23:07:47;1.80;;;0.60;;
72590;SDS011;60625;51.212;5.952;2023-07-31T23:12:47;2.30;;;0.60;;
72590;SDS011;60625;51.212;5.952;2023-07-31T23:17:48;2.00;;;0.60;;
72590;SDS011;60625;51.212;5.952;2023-07-31T23:22:48;1.30;;;0.40;;
72590;SDS011;60625;51.212;5.952;2023-07-31T23:27:48;1.40;;;0.50;;
72590;SDS011;60625;51.212;5.952;2023-07-31T23:32:49;2.00;;;0.60;;
72590;SDS011;60625;51.212;5.952;2023-07-31T23:37:49;1.70;;;0.60;;
72590;SDS011;60625;51.212;5.952;2023-07-31T23:42:50;1.40;;;0.30;;
72590;SDS011;60625;51.212;5.952;2023-07-31T23:47:52;1.60;;;0.40;;
72590;SDS011;60625;51.212;5.952;2023-07-31T23:52:54;1.60;;;0.40;;
72590;SDS011;60625;51.212;5.952;2023-07-31T23:57:55;1.00;;;0.30;;
